sensor_id;sensor_type;location;lat;lon;timestamp;P1;durP1;ratioP1;P2;durP2;ratioP2
61785;SDS011;47692;53.714;11.372;2022-08-01T00:00:29;13.30;;;9.90;;
61785;SDS011;47692;53.714;11.372;2022-08-01T00:02:57;13.38;;;9.77;;
61785;SDS011;47692;53.714;11.372;2022-08-01T00:05:22;13.25;;;9.98;;
61785;SDS011;47692;53.714;11.372;2022-08-01T00:07:48;13.52;;;10.13;;
61785;SDS011;47692;53.714;11.372;2022-08-01T00:10:14;12.38;;;9.38;;
61785;SDS011;47692;53.714;11.372;2022-08-01T00:12:42;12.15;;;8.93;;
61785;SDS011;47692;53.714;11.372;2022-08-01T00:15:10;12.43;;;9.65;;
61785;SDS011;47692;53.714;11.372;2022-08-01T00:17:38;10.55;;;8.15;;
61785;SDS011;47692;53.714;11.372;2022-08-01T00:20:04;10.23;;;7.80;;
61785;SDS011;47692;53.714;11.372;2022-08-01T00:22:32;10.50;;;7.70;;
61785;SDS011;47692;53.714;11.372;2022-08-01T00:24:58;10.85;;;7.35;;
61785;SDS011;47692;53.714;11.372;2022-08-01T00:27:24;8.73;;;6.93;;
61785;SDS011;47692;53.714;11.372;2022-08-01T00:29:50;10.80;;;7.97;;
61785;SDS011;47692;53.714;11.372;2022-08-01T00:32:16;9.52;;;7.47;;
61785;SDS011;47692;53.714;11.372;2022-08-01T00:34:42;10.77;;;8.15;;
61785;SDS011;47692;53.714;11.372;2022-08-01T00:37:07;11.27;;;8.20;;
61785;SDS011;47692;53.714;11.372;2022-08-01T00:39:33;13.55;;;8.57;;
61785;SDS011;47692;53.714;11.372;2022-08-01T00:41:59;11.50;;;8.45;;
61785;SDS011;47692;53.714;11.372;2022-08-01T00:44:26;11.45;;;7.78;;
61785;SDS011;47692;53.714;11.372;2022-08-01T00:46:52;9.75;;;7.75;;
61785;SDS011;47692;53.714;11.372;2022-08-01T00:49:17;9.60;;;7.28;;
61785;SDS011;47692;53.714;11.372;2022-08-01T00:51:43;10.43;;;7.65;;
61785;SDS011;47692;53.714;11.372;2022-08-01T00:54:10;9.95;;;6.75;;
61785;SDS011;47692;53.714;11.372;2022-08-01T00:56:37;8.10;;;6.60;;
61785;SDS011;47692;53.714;11.372;2022-08-01T00:59:02;7.82;;;6.25;;
61785;SDS011;47692;53.714;11.372;2022-08-01T01:01:28;8.23;;;6.20;;
61785;SDS011;47692;53.714;11.372;2022-08-01T01:03:53;7.20;;;5.82;;
61785;SDS011;47692;53.714;11.372;2022-08-01T01:11:57;7.82;;;5.78;;
61785;SDS011;47692;53.714;11.372;2022-08-01T01:17:32;8.23;;;5.93;;
61785;SDS011;47692;53.714;11.372;2022-08-01T01:20:04;9.32;;;6.32;;
61785;SDS011;47692;53.714;11.372;2022-08-01T01:22:36;9.95;;;6.57;;
61785;SDS011;47692;53.714;11.372;2022-08-01T01:28:17;13.50;;;7.32;;
61785;SDS011;47692;53.714;11.372;2022-08-01T01:30:56;11.50;;;6.63;;
61785;SDS011;47692;53.714;11.372;2022-08-01T01:33:24;9.98;;;6.68;;
61785;SDS011;47692;53.714;11.372;2022-08-01T01:35:57;11.77;;;7.38;;
61785;SDS011;47692;53.714;11.372;2022-08-01T01:38:27;12.02;;;6.68;;
61785;SDS011;47692;53.714;11.372;2022-08-01T01:40:58;10.82;;;6.32;;
61785;SDS011;47692;53.714;11.372;2022-08-01T01:43:26;9.27;;;7.03;;
61785;SDS011;47692;53.714;11.372;2022-08-01T01:45:54;11.70;;;6.97;;
61785;SDS011;47692;53.714;11.372;2022-08-01T01:48:21;15.77;;;8.07;;
61785;SDS011;47692;53.714;11.372;2022-08-01T01:50:51;13.85;;;8.27;;
61785;SDS011;47692;53.714;11.372;2022-08-01T01:53:18;16.25;;;8.80;;
61785;SDS011;47692;53.714;11.372;2022-08-01T01:55:47;13.20;;;7.97;;
61785;SDS011;47692;53.714;11.372;2022-08-01T01:58:15;14.02;;;8.40;;
61785;SDS011;47692;53.714;11.372;2022-08-01T02:00:43;17.60;;;9.48;;
61785;SDS011;47692;53.714;11.372;2022-08-01T02:03:12;20.02;;;10.10;;
61785;SDS011;47692;53.714;11.372;2022-08-01T02:05:39;18.27;;;9.98;;
61785;SDS011;47692;53.714;11.372;2022-08-01T02:08:07;16.92;;;9.77;;
61785;SDS011;47692;53.714;11.372;2022-08-01T02:10:37;19.73;;;10.98;;
61785;SDS011;47692;53.714;11.372;2022-08-01T02:13:05;18.50;;;10.60;;
61785;SDS011;47692;53.714;11.372;2022-08-01T02:15:33;21.70;;;10.88;;
61785;SDS011;47692;53.714;11.372;2022-08-01T02:18:03;20.75;;;11.35;;
61785;SDS011;47692;53.714;11.372;2022-08-01T02:20:31;18.70;;;11.38;;
61785;SDS011;47692;53.714;11.372;2022-08-01T02:23:11;14.95;;;10.32;;
61785;SDS011;47692;53.714;11.372;2022-08-01T02:28:13;20.05;;;11.30;;
61785;SDS011;47692;53.714;11.372;2022-08-01T02:30:44;18.77;;;11.18;;
61785;SDS011;47692;53.714;11.372;2022-08-01T02:33:15;18.77;;;10.70;;
61785;SDS011;47692;53.714;11.372;2022-08-01T02:35:42;16.90;;;10.32;;
61785;SDS011;47692;53.714;11.372;2022-08-01T02:38:12;16.65;;;10.98;;
61785;SDS011;47692;53.714;11.372;2022-08-01T02:40:42;18.10;;;11.27;;
61785;SDS011;47692;53.714;11.372;2022-08-01T02:43:10;19.85;;;10.98;;
61785;SDS011;47692;53.714;11.372;2022-08-01T02:45:42;16.15;;;9.88;;
61785;SDS011;47692;53.714;11.372;2022-08-01T02:48:14;18.02;;;11.60;;
61785;SDS011;47692;53.714;11.372;2022-08-01T02:50:42;17.75;;;10.65;;
61785;SDS011;47692;53.714;11.372;2022-08-01T02:53:10;17.02;;;10.65;;
61785;SDS011;47692;53.714;11.372;2022-08-01T02:55:38;18.80;;;10.80;;
61785;SDS011;47692;53.714;11.372;2022-08-01T02:58:06;21.30;;;11.35;;
61785;SDS011;47692;53.714;11.372;2022-08-01T03:00:35;19.38;;;12.13;;
61785;SDS011;47692;53.714;11.372;2022-08-01T03:03:03;16.13;;;10.82;;
61785;SDS011;47692;53.714;11.372;2022-08-01T03:05:30;23.85;;;12.38;;
61785;SDS011;47692;53.714;11.372;2022-08-01T03:07:58;16.88;;;11.15;;
61785;SDS011;47692;53.714;11.372;2022-08-01T03:10:26;19.83;;;12.48;;
61785;SDS011;47692;53.714;11.372;2022-08-01T03:12:54;20.05;;;12.00;;
61785;SDS011;47692;53.714;11.372;2022-08-01T03:15:25;19.25;;;12.00;;
61785;SDS011;47692;53.714;11.372;2022-08-01T03:17:52;21.15;;;12.25;;
61785;SDS011;47692;53.714;11.372;2022-08-01T03:20:21;19.27;;;11.80;;
61785;SDS011;47692;53.714;11.372;2022-08-01T03:22:50;21.42;;;12.27;;
61785;SDS011;47692;53.714;11.372;2022-08-01T03:25:17;21.98;;;11.93;;
61785;SDS011;47692;53.714;11.372;2022-08-01T03:27:45;21.88;;;12.00;;
61785;SDS011;47692;53.714;11.372;2022-08-01T03:32:42;19.27;;;12.05;;
61785;SDS011;47692;53.714;11.372;2022-08-01T03:35:08;21.45;;;11.38;;
61785;SDS011;47692;53.714;11.372;2022-08-01T03:37:36;18.13;;;11.20;;
61785;SDS011;47692;53.714;11.372;2022-08-01T03:43:10;20.83;;;11.38;;
61785;SDS011;47692;53.714;11.372;2022-08-01T03:45:41;23.83;;;12.50;;
61785;SDS011;47692;53.714;11.372;2022-08-01T03:50:41;25.13;;;12.32;;
61785;SDS011;47692;53.714;11.372;2022-08-01T03:53:10;23.63;;;12.35;;
61785;SDS011;47692;53.714;11.372;2022-08-01T03:55:38;23.45;;;12.05;;
61785;SDS011;47692;53.714;11.372;2022-08-01T03:58:06;23.10;;;12.63;;
61785;SDS011;47692;53.714;11.372;2022-08-01T04:00:35;23.17;;;12.75;;
61785;SDS011;47692;53.714;11.372;2022-08-01T04:03:07;22.38;;;11.90;;
61785;SDS011;47692;53.714;11.372;2022-08-01T04:05:34;24.77;;;12.05;;
61785;SDS011;47692;53.714;11.372;2022-08-01T04:08:00;21.42;;;10.93;;
61785;SDS011;47692;53.714;11.372;2022-08-01T04:10:28;24.23;;;12.10;;
61785;SDS011;47692;53.714;11.372;2022-08-01T04:12:55;21.30;;;11.75;;
61785;SDS011;47692;53.714;11.372;2022-08-01T04:15:20;22.42;;;11.75;;
61785;SDS011;47692;53.714;11.372;2022-08-01T04:17:46;25.38;;;12.95;;
61785;SDS011;47692;53.714;11.372;2022-08-01T04:20:14;24.75;;;13.23;;
61785;SDS011;47692;53.714;11.372;2022-08-01T04:22:41;21.30;;;11.52;;
61785;SDS011;47692;53.714;11.372;2022-08-01T04:25:14;28.50;;;13.00;;
61785;SDS011;47692;53.714;11.372;2022-08-01T04:27:45;26.70;;;13.88;;
61785;SDS011;47692;53.714;11.372;2022-08-01T04:30:14;26.75;;;14.15;;
61785;SDS011;47692;53.714;11.372;2022-08-01T04:32:40;24.88;;;12.82;;
61785;SDS011;47692;53.714;11.372;2022-08-01T04:35:11;25.95;;;13.68;;
61785;SDS011;47692;53.714;11.372;2022-08-01T04:37:41;27.77;;;14.50;;
61785;SDS011;47692;53.714;11.372;2022-08-01T04:40:10;26.75;;;14.18;;
61785;SDS011;47692;53.714;11.372;2022-08-01T04:42:37;24.45;;;13.57;;
61785;SDS011;47692;53.714;11.372;2022-08-01T04:45:06;25.63;;;14.30;;
61785;SDS011;47692;53.714;11.372;2022-08-01T04:47:34;27.13;;;13.50;;
61785;SDS011;47692;53.714;11.372;2022-08-01T04:50:04;26.17;;;13.25;;
61785;SDS011;47692;53.714;11.372;2022-08-01T04:52:32;26.33;;;13.30;;
61785;SDS011;47692;53.714;11.372;2022-08-01T04:54:59;25.25;;;13.15;;
61785;SDS011;47692;53.714;11.372;2022-08-01T04:57:25;27.95;;;13.57;;
61785;SDS011;47692;53.714;11.372;2022-08-01T04:59:51;29.60;;;14.65;;
61785;SDS011;47692;53.714;11.372;2022-08-01T05:02:22;29.20;;;13.80;;
61785;SDS011;47692;53.714;11.372;2022-08-01T05:04:48;25.35;;;12.57;;
61785;SDS011;47692;53.714;11.372;2022-08-01T05:07:15;22.95;;;12.38;;
61785;SDS011;47692;53.714;11.372;2022-08-01T05:09:42;26.65;;;12.60;;
61785;SDS011;47692;53.714;11.372;2022-08-01T05:12:09;24.38;;;13.15;;
61785;SDS011;47692;53.714;11.372;2022-08-01T05:14:36;26.48;;;12.65;;
61785;SDS011;47692;53.714;11.372;2022-08-01T05:17:03;31.73;;;14.45;;
61785;SDS011;47692;53.714;11.372;2022-08-01T05:19:32;24.33;;;13.50;;
61785;SDS011;47692;53.714;11.372;2022-08-01T05:21:59;24.58;;;13.35;;
61785;SDS011;47692;53.714;11.372;2022-08-01T05:24:29;23.83;;;12.38;;
61785;SDS011;47692;53.714;11.372;2022-08-01T05:26:57;22.13;;;11.52;;
61785;SDS011;47692;53.714;11.372;2022-08-01T05:29:24;24.20;;;12.75;;
61785;SDS011;47692;53.714;11.372;2022-08-01T05:31:51;27.55;;;12.68;;
61785;SDS011;47692;53.714;11.372;2022-08-01T05:34:17;19.38;;;11.90;;
61785;SDS011;47692;53.714;11.372;2022-08-01T05:36:43;22.95;;;11.50;;
61785;SDS011;47692;53.714;11.372;2022-08-01T05:39:08;22.92;;;12.13;;
61785;SDS011;47692;53.714;11.372;2022-08-01T05:41:35;19.65;;;11.40;;
61785;SDS011;47692;53.714;11.372;2022-08-01T05:44:03;18.90;;;11.18;;
61785;SDS011;47692;53.714;11.372;2022-08-01T05:46:29;18.98;;;11.20;;
61785;SDS011;47692;53.714;11.372;2022-08-01T05:48:59;21.17;;;11.98;;
61785;SDS011;47692;53.714;11.372;2022-08-01T05:51:26;20.15;;;11.27;;
61785;SDS011;47692;53.714;11.372;2022-08-01T05:53:52;22.52;;;11.73;;
61785;SDS011;47692;53.714;11.372;2022-08-01T05:56:19;24.33;;;12.23;;
61785;SDS011;47692;53.714;11.372;2022-08-01T05:58:46;23.35;;;11.90;;
61785;SDS011;47692;53.714;11.372;2022-08-01T06:01:12;23.73;;;13.38;;
61785;SDS011;47692;53.714;11.372;2022-08-01T06:03:38;25.92;;;13.18;;
61785;SDS011;47692;53.714;11.372;2022-08-01T06:06:04;24.73;;;12.07;;
61785;SDS011;47692;53.714;11.372;2022-08-01T06:08:30;24.88;;;12.35;;
61785;SDS011;47692;53.714;11.372;2022-08-01T06:10:56;19.23;;;11.10;;
61785;SDS011;47692;53.714;11.372;2022-08-01T06:13:21;21.33;;;11.45;;
61785;SDS011;47692;53.714;11.372;2022-08-01T06:15:47;16.38;;;9.73;;
61785;SDS011;47692;53.714;11.372;2022-08-01T06:18:13;21.33;;;11.52;;
61785;SDS011;47692;53.714;11.372;2022-08-01T06:20:39;18.95;;;11.30;;
61785;SDS011;47692;53.714;11.372;2022-08-01T06:23:05;18.25;;;10.70;;
61785;SDS011;47692;53.714;11.372;2022-08-01T06:25:30;19.42;;;10.35;;
61785;SDS011;47692;53.714;11.372;2022-08-01T06:27:56;16.20;;;10.57;;
61785;SDS011;47692;53.714;11.372;2022-08-01T06:30:21;19.38;;;11.25;;
61785;SDS011;47692;53.714;11.372;2022-08-01T06:32:47;15.98;;;9.60;;
61785;SDS011;47692;53.714;11.372;2022-08-01T06:35:13;15.32;;;9.80;;
61785;SDS011;47692;53.714;11.372;2022-08-01T06:37:39;14.75;;;9.27;;
61785;SDS011;47692;53.714;11.372;2022-08-01T06:40:05;17.27;;;9.02;;
61785;SDS011;47692;53.714;11.372;2022-08-01T06:42:33;13.68;;;8.77;;
61785;SDS011;47692;53.714;11.372;2022-08-01T06:45:07;16.42;;;9.18;;
61785;SDS011;47692;53.714;11.372;2022-08-01T06:47:34;16.45;;;9.07;;
61785;SDS011;47692;53.714;11.372;2022-08-01T06:50:00;13.68;;;7.95;;
61785;SDS011;47692;53.714;11.372;2022-08-01T06:52:26;14.38;;;8.30;;
61785;SDS011;47692;53.714;11.372;2022-08-01T06:54:51;16.58;;;8.70;;
61785;SDS011;47692;53.714;11.372;2022-08-01T06:57:17;15.52;;;8.30;;
61785;SDS011;47692;53.714;11.372;2022-08-01T06:59:44;15.13;;;9.05;;
61785;SDS011;47692;53.714;11.372;2022-08-01T07:02:09;14.15;;;8.63;;
61785;SDS011;47692;53.714;11.372;2022-08-01T07:04:35;18.85;;;8.85;;
61785;SDS011;47692;53.714;11.372;2022-08-01T07:07:02;11.95;;;8.30;;
61785;SDS011;47692;53.714;11.372;2022-08-01T07:09:29;14.50;;;8.65;;
61785;SDS011;47692;53.714;11.372;2022-08-01T07:11:55;14.38;;;7.70;;
61785;SDS011;47692;53.714;11.372;2022-08-01T07:14:22;14.18;;;8.18;;
61785;SDS011;47692;53.714;11.372;2022-08-01T07:16:47;15.38;;;7.85;;
61785;SDS011;47692;53.714;11.372;2022-08-01T07:19:14;12.40;;;8.38;;
61785;SDS011;47692;53.714;11.372;2022-08-01T07:21:40;13.52;;;7.82;;
61785;SDS011;47692;53.714;11.372;2022-08-01T07:24:06;11.07;;;6.95;;
61785;SDS011;47692;53.714;11.372;2022-08-01T07:26:38;13.68;;;7.60;;
61785;SDS011;47692;53.714;11.372;2022-08-01T07:29:04;11.25;;;7.57;;
61785;SDS011;47692;53.714;11.372;2022-08-01T07:31:30;12.07;;;7.13;;
61785;SDS011;47692;53.714;11.372;2022-08-01T07:33:55;11.57;;;7.15;;
61785;SDS011;47692;53.714;11.372;2022-08-01T07:36:21;11.05;;;7.07;;
61785;SDS011;47692;53.714;11.372;2022-08-01T07:38:47;14.43;;;7.88;;
61785;SDS011;47692;53.714;11.372;2022-08-01T07:41:13;12.80;;;6.93;;
61785;SDS011;47692;53.714;11.372;2022-08-01T07:43:39;10.75;;;5.95;;
61785;SDS011;47692;53.714;11.372;2022-08-01T07:46:05;11.98;;;6.88;;
61785;SDS011;47692;53.714;11.372;2022-08-01T07:48:31;11.52;;;5.93;;
61785;SDS011;47692;53.714;11.372;2022-08-01T07:50:56;10.40;;;6.28;;
61785;SDS011;47692;53.714;11.372;2022-08-01T07:53:22;7.05;;;4.90;;
61785;SDS011;47692;53.714;11.372;2022-08-01T07:55:47;10.40;;;5.35;;
61785;SDS011;47692;53.714;11.372;2022-08-01T07:58:14;7.75;;;4.47;;
61785;SDS011;47692;53.714;11.372;2022-08-01T08:00:40;7.60;;;4.95;;
61785;SDS011;47692;53.714;11.372;2022-08-01T08:03:06;5.65;;;3.83;;
61785;SDS011;47692;53.714;11.372;2022-08-01T08:05:32;5.78;;;3.58;;
61785;SDS011;47692;53.714;11.372;2022-08-01T08:08:00;6.53;;;3.33;;
61785;SDS011;47692;53.714;11.372;2022-08-01T08:10:27;4.10;;;2.10;;
61785;SDS011;47692;53.714;11.372;2022-08-01T08:12:53;4.65;;;3.50;;
61785;SDS011;47692;53.714;11.372;2022-08-01T08:15:18;6.20;;;3.20;;
61785;SDS011;47692;53.714;11.372;2022-08-01T08:17:44;6.32;;;3.42;;
61785;SDS011;47692;53.714;11.372;2022-08-01T08:20:09;5.05;;;3.53;;
61785;SDS011;47692;53.714;11.372;2022-08-01T08:22:35;5.78;;;3.00;;
61785;SDS011;47692;53.714;11.372;2022-08-01T08:25:01;6.18;;;3.28;;
61785;SDS011;47692;53.714;11.372;2022-08-01T08:27:27;6.95;;;2.92;;
61785;SDS011;47692;53.714;11.372;2022-08-01T08:29:53;4.28;;;3.10;;
61785;SDS011;47692;53.714;11.372;2022-08-01T08:32:19;3.58;;;2.72;;
61785;SDS011;47692;53.714;11.372;2022-08-01T08:34:45;4.78;;;2.60;;
61785;SDS011;47692;53.714;11.372;2022-08-01T08:37:11;5.32;;;3.00;;
61785;SDS011;47692;53.714;11.372;2022-08-01T08:39:37;2.67;;;2.28;;
61785;SDS011;47692;53.714;11.372;2022-08-01T08:42:06;3.10;;;2.47;;
61785;SDS011;47692;53.714;11.372;2022-08-01T08:47:00;3.53;;;2.33;;
61785;SDS011;47692;53.714;11.372;2022-08-01T08:49:30;4.68;;;2.58;;
61785;SDS011;47692;53.714;11.372;2022-08-01T08:51:57;3.25;;;2.30;;
61785;SDS011;47692;53.714;11.372;2022-08-01T08:54:25;4.07;;;2.45;;
61785;SDS011;47692;53.714;11.372;2022-08-01T08:56:52;4.53;;;2.22;;
61785;SDS011;47692;53.714;11.372;2022-08-01T08:59:20;5.47;;;2.38;;
61785;SDS011;47692;53.714;11.372;2022-08-01T09:01:57;3.78;;;2.85;;
61785;SDS011;47692;53.714;11.372;2022-08-01T09:04:25;6.57;;;2.42;;
61785;SDS011;47692;53.714;11.372;2022-08-01T09:06:56;4.15;;;2.85;;
61785;SDS011;47692;53.714;11.372;2022-08-01T09:09:22;5.72;;;3.60;;
61785;SDS011;47692;53.714;11.372;2022-08-01T09:11:49;4.28;;;3.15;;
61785;SDS011;47692;53.714;11.372;2022-08-01T09:14:18;4.43;;;3.35;;
61785;SDS011;47692;53.714;11.372;2022-08-01T09:19:46;4.00;;;3.25;;
61785;SDS011;47692;53.714;11.372;2022-08-01T09:22:18;4.20;;;3.47;;
61785;SDS011;47692;53.714;11.372;2022-08-01T09:25:03;5.72;;;3.83;;
61785;SDS011;47692;53.714;11.372;2022-08-01T09:27:34;8.30;;;3.42;;
61785;SDS011;47692;53.714;11.372;2022-08-01T09:30:10;4.82;;;3.40;;
61785;SDS011;47692;53.714;11.372;2022-08-01T09:32:54;5.40;;;3.75;;
61785;SDS011;47692;53.714;11.372;2022-08-01T09:35:22;5.80;;;3.40;;
61785;SDS011;47692;53.714;11.372;2022-08-01T09:38:22;4.22;;;3.47;;
61785;SDS011;47692;53.714;11.372;2022-08-01T09:40:52;4.70;;;3.28;;
61785;SDS011;47692;53.714;11.372;2022-08-01T09:43:21;4.80;;;3.22;;
61785;SDS011;47692;53.714;11.372;2022-08-01T09:45:48;4.95;;;2.70;;
61785;SDS011;47692;53.714;11.372;2022-08-01T09:48:14;4.20;;;2.90;;
61785;SDS011;47692;53.714;11.372;2022-08-01T09:50:43;5.13;;;2.67;;
61785;SDS011;47692;53.714;11.372;2022-08-01T09:53:18;3.20;;;2.58;;
61785;SDS011;47692;53.714;11.372;2022-08-01T09:55:44;3.25;;;2.92;;
61785;SDS011;47692;53.714;11.372;2022-08-01T09:58:11;5.30;;;2.90;;
61785;SDS011;47692;53.714;11.372;2022-08-01T10:00:38;3.38;;;1.85;;
61785;SDS011;47692;53.714;11.372;2022-08-01T10:03:24;5.40;;;2.50;;
61785;SDS011;47692;53.714;11.372;2022-08-01T10:05:51;3.72;;;2.42;;
61785;SDS011;47692;53.714;11.372;2022-08-01T10:08:20;3.00;;;2.28;;
61785;SDS011;47692;53.714;11.372;2022-08-01T10:13:41;4.13;;;1.92;;
61785;SDS011;47692;53.714;11.372;2022-08-01T10:16:06;3.05;;;1.90;;
61785;SDS011;47692;53.714;11.372;2022-08-01T10:18:33;2.55;;;1.60;;
61785;SDS011;47692;53.714;11.372;2022-08-01T10:21:01;3.10;;;1.77;;
61785;SDS011;47692;53.714;11.372;2022-08-01T10:23:29;2.70;;;1.50;;
61785;SDS011;47692;53.714;11.372;2022-08-01T10:26:00;2.10;;;1.75;;
61785;SDS011;47692;53.714;11.372;2022-08-01T10:28:27;1.92;;;1.50;;
61785;SDS011;47692;53.714;11.372;2022-08-01T10:30:55;1.88;;;1.50;;
61785;SDS011;47692;53.714;11.372;2022-08-01T10:33:22;4.80;;;1.63;;
61785;SDS011;47692;53.714;11.372;2022-08-01T10:38:24;2.17;;;1.40;;
61785;SDS011;47692;53.714;11.372;2022-08-01T10:40:52;2.78;;;1.42;;
61785;SDS011;47692;53.714;11.372;2022-08-01T10:43:19;2.15;;;1.52;;
61785;SDS011;47692;53.714;11.372;2022-08-01T10:45:44;7.30;;;2.40;;
61785;SDS011;47692;53.714;11.372;2022-08-01T10:50:54;3.83;;;2.42;;
61785;SDS011;47692;53.714;11.372;2022-08-01T10:53:25;5.05;;;2.85;;
61785;SDS011;47692;53.714;11.372;2022-08-01T10:58:26;7.88;;;3.30;;
61785;SDS011;47692;53.714;11.372;2022-08-01T11:03:43;3.88;;;2.85;;
61785;SDS011;47692;53.714;11.372;2022-08-01T11:08:58;5.22;;;2.80;;
61785;SDS011;47692;53.714;11.372;2022-08-01T11:12:02;4.63;;;2.47;;
61785;SDS011;47692;53.714;11.372;2022-08-01T11:14:29;6.63;;;2.30;;
61785;SDS011;47692;53.714;11.372;2022-08-01T11:16:55;6.57;;;2.78;;
61785;SDS011;47692;53.714;11.372;2022-08-01T11:19:21;3.38;;;2.75;;
61785;SDS011;47692;53.714;11.372;2022-08-01T11:27:19;5.90;;;2.20;;
61785;SDS011;47692;53.714;11.372;2022-08-01T11:32:45;4.13;;;1.90;;
61785;SDS011;47692;53.714;11.372;2022-08-01T11:35:11;2.60;;;1.05;;
61785;SDS011;47692;53.714;11.372;2022-08-01T11:37:36;2.00;;;1.00;;
61785;SDS011;47692;53.714;11.372;2022-08-01T11:42:40;1.05;;;0.60;;
61785;SDS011;47692;53.714;11.372;2022-08-01T11:45:06;2.20;;;0.70;;
61785;SDS011;47692;53.714;11.372;2022-08-01T11:47:52;1.67;;;0.50;;
61785;SDS011;47692;53.714;11.372;2022-08-01T11:50:31;1.88;;;0.70;;
61785;SDS011;47692;53.714;11.372;2022-08-01T11:53:05;1.30;;;0.77;;
61785;SDS011;47692;53.714;11.372;2022-08-01T11:55:32;1.33;;;0.82;;
61785;SDS011;47692;53.714;11.372;2022-08-01T12:00:32;4.88;;;1.10;;
61785;SDS011;47692;53.714;11.372;2022-08-01T12:05:23;2.83;;;1.60;;
61785;SDS011;47692;53.714;11.372;2022-08-01T12:07:49;3.55;;;1.33;;
61785;SDS011;47692;53.714;11.372;2022-08-01T12:10:17;2.90;;;1.30;;
61785;SDS011;47692;53.714;11.372;2022-08-01T12:12:53;2.63;;;1.40;;
61785;SDS011;47692;53.714;11.372;2022-08-01T12:15:22;5.28;;;1.55;;
61785;SDS011;47692;53.714;11.372;2022-08-01T12:17:55;3.33;;;1.20;;
61785;SDS011;47692;53.714;11.372;2022-08-01T12:20:23;2.45;;;1.00;;
61785;SDS011;47692;53.714;11.372;2022-08-01T12:22:55;5.45;;;1.80;;
61785;SDS011;47692;53.714;11.372;2022-08-01T12:25:22;3.13;;;1.75;;
61785;SDS011;47692;53.714;11.372;2022-08-01T12:27:48;4.50;;;2.05;;
61785;SDS011;47692;53.714;11.372;2022-08-01T12:30:15;3.25;;;1.80;;
61785;SDS011;47692;53.714;11.372;2022-08-01T12:32:48;4.38;;;1.80;;
61785;SDS011;47692;53.714;11.372;2022-08-01T12:35:18;5.50;;;2.30;;
61785;SDS011;47692;53.714;11.372;2022-08-01T12:37:54;3.10;;;1.60;;
61785;SDS011;47692;53.714;11.372;2022-08-01T12:40:29;5.60;;;1.60;;
61785;SDS011;47692;53.714;11.372;2022-08-01T12:43:05;5.28;;;1.80;;
61785;SDS011;47692;53.714;11.372;2022-08-01T12:45:41;2.78;;;1.30;;
61785;SDS011;47692;53.714;11.372;2022-08-01T12:48:09;6.32;;;1.63;;
61785;SDS011;47692;53.714;11.372;2022-08-01T12:50:37;2.10;;;1.50;;
61785;SDS011;47692;53.714;11.372;2022-08-01T12:53:04;3.17;;;1.13;;
61785;SDS011;47692;53.714;11.372;2022-08-01T12:55:31;3.63;;;1.35;;
61785;SDS011;47692;53.714;11.372;2022-08-01T12:58:07;4.03;;;1.50;;
61785;SDS011;47692;53.714;11.372;2022-08-01T13:00:34;2.95;;;0.90;;
61785;SDS011;47692;53.714;11.372;2022-08-01T13:03:03;3.03;;;1.20;;
61785;SDS011;47692;53.714;11.372;2022-08-01T13:06:13;2.42;;;1.10;;
61785;SDS011;47692;53.714;11.372;2022-08-01T13:08:24;6.50;;;1.30;;
61785;SDS011;47692;53.714;11.372;2022-08-01T13:11:04;5.07;;;1.23;;
61785;SDS011;47692;53.714;11.372;2022-08-01T13:16:04;4.75;;;1.20;;
61785;SDS011;47692;53.714;11.372;2022-08-01T13:18:31;6.13;;;1.40;;
61785;SDS011;47692;53.714;11.372;2022-08-01T13:23:40;4.97;;;1.40;;
61785;SDS011;47692;53.714;11.372;2022-08-01T13:26:08;2.83;;;1.13;;
61785;SDS011;47692;53.714;11.372;2022-08-01T13:28:33;4.13;;;1.13;;
61785;SDS011;47692;53.714;11.372;2022-08-01T13:33:28;7.35;;;1.45;;
61785;SDS011;47692;53.714;11.372;2022-08-01T13:36:05;4.50;;;1.10;;
61785;SDS011;47692;53.714;11.372;2022-08-01T13:38:31;4.68;;;1.27;;
61785;SDS011;47692;53.714;11.372;2022-08-01T13:41:15;4.97;;;1.42;;
61785;SDS011;47692;53.714;11.372;2022-08-01T13:43:40;6.95;;;1.45;;
61785;SDS011;47692;53.714;11.372;2022-08-01T13:46:06;5.65;;;1.33;;
61785;SDS011;47692;53.714;11.372;2022-08-01T13:48:31;4.90;;;1.20;;
61785;SDS011;47692;53.714;11.372;2022-08-01T13:50:57;4.93;;;1.30;;
61785;SDS011;47692;53.714;11.372;2022-08-01T13:53:23;2.95;;;1.15;;
61785;SDS011;47692;53.714;11.372;2022-08-01T13:55:48;5.75;;;1.20;;
61785;SDS011;47692;53.714;11.372;2022-08-01T13:58:13;4.60;;;1.20;;
61785;SDS011;47692;53.714;11.372;2022-08-01T14:00:40;3.53;;;1.13;;
61785;SDS011;47692;53.714;11.372;2022-08-01T14:03:05;5.47;;;1.35;;
61785;SDS011;47692;53.714;11.372;2022-08-01T14:05:30;3.85;;;1.10;;
61785;SDS011;47692;53.714;11.372;2022-08-01T14:07:56;2.47;;;1.00;;
61785;SDS011;47692;53.714;11.372;2022-08-01T14:10:21;3.83;;;1.30;;
61785;SDS011;47692;53.714;11.372;2022-08-01T14:12:47;2.90;;;1.42;;
61785;SDS011;47692;53.714;11.372;2022-08-01T14:15:12;6.38;;;1.17;;
61785;SDS011;47692;53.714;11.372;2022-08-01T14:17:38;4.43;;;1.20;;
61785;SDS011;47692;53.714;11.372;2022-08-01T14:20:03;3.63;;;1.10;;
61785;SDS011;47692;53.714;11.372;2022-08-01T14:22:30;5.60;;;1.20;;
61785;SDS011;47692;53.714;11.372;2022-08-01T14:24:55;5.82;;;1.00;;
61785;SDS011;47692;53.714;11.372;2022-08-01T14:27:21;2.97;;;1.05;;
61785;SDS011;47692;53.714;11.372;2022-08-01T14:29:46;2.70;;;1.05;;
61785;SDS011;47692;53.714;11.372;2022-08-01T14:32:11;3.88;;;1.20;;
61785;SDS011;47692;53.714;11.372;2022-08-01T14:34:37;3.28;;;1.10;;
61785;SDS011;47692;53.714;11.372;2022-08-01T14:37:02;2.83;;;0.90;;
61785;SDS011;47692;53.714;11.372;2022-08-01T14:39:27;3.97;;;1.10;;
61785;SDS011;47692;53.714;11.372;2022-08-01T14:41:53;3.88;;;1.08;;
61785;SDS011;47692;53.714;11.372;2022-08-01T14:44:18;7.20;;;1.38;;
61785;SDS011;47692;53.714;11.372;2022-08-01T14:46:44;4.47;;;1.23;;
61785;SDS011;47692;53.714;11.372;2022-08-01T14:49:09;5.07;;;1.30;;
61785;SDS011;47692;53.714;11.372;2022-08-01T14:51:34;10.27;;;1.35;;
61785;SDS011;47692;53.714;11.372;2022-08-01T14:54:02;6.57;;;1.30;;
61785;SDS011;47692;53.714;11.372;2022-08-01T14:56:28;3.67;;;1.17;;
61785;SDS011;47692;53.714;11.372;2022-08-01T14:58:53;10.27;;;1.40;;
61785;SDS011;47692;53.714;11.372;2022-08-01T15:01:19;6.43;;;1.10;;
61785;SDS011;47692;53.714;11.372;2022-08-01T15:03:44;6.35;;;1.25;;
61785;SDS011;47692;53.714;11.372;2022-08-01T15:06:11;4.93;;;0.98;;
61785;SDS011;47692;53.714;11.372;2022-08-01T15:08:37;4.20;;;1.13;;
61785;SDS011;47692;53.714;11.372;2022-08-01T15:11:04;4.13;;;1.38;;
61785;SDS011;47692;53.714;11.372;2022-08-01T15:13:29;5.55;;;1.40;;
61785;SDS011;47692;53.714;11.372;2022-08-01T15:15:55;5.25;;;1.10;;
61785;SDS011;47692;53.714;11.372;2022-08-01T15:18:20;3.28;;;1.20;;
61785;SDS011;47692;53.714;11.372;2022-08-01T15:20:45;4.18;;;1.17;;
61785;SDS011;47692;53.714;11.372;2022-08-01T15:23:11;4.80;;;1.20;;
61785;SDS011;47692;53.714;11.372;2022-08-01T15:25:36;4.43;;;1.20;;
61785;SDS011;47692;53.714;11.372;2022-08-01T15:28:01;4.03;;;1.25;;
61785;SDS011;47692;53.714;11.372;2022-08-01T15:30:27;4.00;;;0.88;;
61785;SDS011;47692;53.714;11.372;2022-08-01T15:32:53;5.35;;;1.30;;
61785;SDS011;47692;53.714;11.372;2022-08-01T15:35:18;5.63;;;1.17;;